Time;durP1;ratioP1;P1;durP2;ratioP2;P2;SDS_P1;SDS_P2;PMS_P1;PMS_P2;Temp;Humidity;BMP_temperature;BMP_pressure;BME280_temperature;BME280_humidity;BME280_pressure;Samples;Min_cycle;Max_cycle;Signal;HPM_P1;HPM_P2
2022/06/25 00:00:05;;;;;;;0.70;0.50;;;;;;;23.16;48.16;100774.75;16147357;19;128950;-61
2022/06/25 00:05:27;;;;;;;2.60;0.60;;;;;;;23.14;48.17;100783.44;16141290;19;132372;-57
2022/06/25 00:10:49;;;;;;;2.53;0.50;;;;;;;23.14;48.05;100785.38;16139571;19;130050;-56
2022/06/25 00:16:11;;;;;;;3.40;0.32;;;;;;;23.13;48.00;100790.13;16144636;19;129085;-55
2022/06/25 00:21:33;;;;;;;0.75;0.50;;;;;;;23.11;48.55;100778.41;16143277;19;129914;-58
2022/06/25 00:26:54;;;;;;;1.48;0.40;;;;;;;23.11;48.36;100797.09;16144140;19;129221;-56
2022/06/25 00:32:16;;;;;;;2.00;0.50;;;;;;;23.10;48.22;100790.66;16146163;19;129335;-54
2022/06/25 00:37:38;;;;;;;1.77;0.50;;;;;;;23.09;48.08;100785.38;16140996;19;129241;-56
2022/06/25 00:43:01;;;;;;;1.48;0.60;;;;;;;23.09;48.11;100793.75;16141193;19;128892;-55
2022/06/25 00:48:22;;;;;;;2.72;0.50;;;;;;;23.06;48.43;100800.75;16143690;19;129429;-55
2022/06/25 00:53:45;;;;;;;0.77;0.28;;;;;;;23.05;48.44;100794.31;16135717;19;129237;-56
2022/06/25 00:59:08;;;;;;;3.78;0.50;;;;;;;23.05;48.42;100801.84;16143879;19;129490;-55
2022/06/25 01:04:30;;;;;;;0.68;0.30;;;;;;;23.04;48.38;100803.78;16141448;19;130368;-54
2022/06/25 01:09:52;;;;;;;0.93;0.60;;;;;;;23.02;48.27;100811.59;16142207;19;128915;-57
2022/06/25 01:15:17;;;;;;;0.93;0.30;;;;;;;23.02;48.17;100811.59;16143176;19;128923;-55
2022/06/25 01:20:38;;;;;;;0.60;0.40;;;;;;;23.01;48.66;100815.53;16142727;19;129113;-58
2022/06/25 01:26:00;;;;;;;1.90;0.52;;;;;;;23.01;48.31;100832.28;16136554;19;131791;-55
2022/06/25 01:31:22;;;;;;;1.00;0.30;;;;;;;23.01;48.36;100825.84;16138771;19;129077;-56
2022/06/25 01:36:44;;;;;;;0.52;0.30;;;;;;;22.99;48.27;100828.91;16137047;19;129179;-59
2022/06/25 01:42:06;;;;;;;0.90;0.50;;;;;;;22.99;48.24;100826.13;16139262;19;128862;-56
2022/06/25 01:47:28;;;;;;;1.58;0.70;;;;;;;22.98;48.07;100823.59;16140093;19;129387;-55
2022/06/25 01:52:51;;;;;;;0.55;0.40;;;;;;;22.97;48.00;100831.16;16142064;19;129603;-55
2022/06/25 01:58:13;;;;;;;0.40;0.22;;;;;;;22.96;48.09;100835.03;16138080;19;129328;-54
2022/06/25 02:03:35;;;;;;;1.10;0.30;;;;;;;22.96;48.63;100842.56;16137128;19;129083;-56
2022/06/25 02:08:57;;;;;;;0.60;0.40;;;;;;;22.95;48.35;100855.69;16154420;19;128863;-58
2022/06/25 02:14:19;;;;;;;1.17;0.30;;;;;;;22.95;48.42;100857.66;16155356;19;131826;-55
2022/06/25 02:19:41;;;;;;;0.30;0.30;;;;;;;22.95;48.23;100860.44;16152083;19;128953;-58
2022/06/25 02:25:03;;;;;;;1.00;0.30;;;;;;;22.94;48.27;100865.16;16151162;19;129474;-56
2022/06/25 02:30:25;;;;;;;0.43;0.40;;;;;;;22.93;48.09;100859.88;16153520;19;131616;-56
2022/06/25 02:35:47;;;;;;;0.63;0.30;;;;;;;22.91;48.08;100868.50;16150103;19;129179;-56
2022/06/25 02:41:09;;;;;;;0.32;0.28;;;;;;;22.91;48.39;100862.94;16153705;19;129929;-57
2022/06/25 02:46:31;;;;;;;0.30;0.30;;;;;;;22.91;48.28;100868.50;16152897;19;129918;-56
2022/06/25 02:51:54;;;;;;;0.60;0.20;;;;;;;22.89;48.45;100879.09;16154910;19;129959;-55
2022/06/25 03:02:57;;;;;;;0.38;0.30;;;;;;;22.88;48.44;100885.78;16147171;19;129341;-60
2022/06/25 03:08:18;;;;;;;0.40;0.40;;;;;;;22.87;48.30;100884.94;16152139;19;128943;-56
2022/06/25 03:13:41;;;;;;;0.95;0.30;;;;;;;22.86;48.59;100890.81;16150505;19;129523;-56
2022/06/25 03:19:03;;;;;;;0.52;0.30;;;;;;;22.87;48.20;100892.47;16151135;19;129415;-55
2022/06/25 03:24:25;;;;;;;1.10;0.30;;;;;;;22.86;48.15;100886.03;16146467;19;129917;-56
2022/06/25 03:29:47;;;;;;;0.25;0.20;;;;;;;22.85;48.19;100886.34;16142391;19;129293;-56
2022/06/25 03:35:09;;;;;;;0.43;0.40;;;;;;;22.85;48.00;100894.69;16148567;19;129814;-56
2022/06/25 03:40:30;;;;;;;0.60;0.30;;;;;;;22.84;48.25;100901.38;16149349;19;129639;-56
2022/06/25 03:45:52;;;;;;;0.20;0.20;;;;;;;22.84;48.13;100895.81;16145046;19;129937;-54
2022/06/25 03:51:14;;;;;;;0.50;0.30;;;;;;;22.83;48.13;100914.47;16148061;19;129362;-55
2022/06/25 03:56:36;;;;;;;0.70;0.30;;;;;;;22.83;48.19;100916.44;16148100;19;130421;-56
2022/06/25 04:01:58;;;;;;;0.40;0.28;;;;;;;22.82;48.11;100911.97;16144907;19;129394;-56
2022/06/25 04:07:19;;;;;;;0.52;0.30;;;;;;;22.82;48.06;100906.41;16144293;19;129155;-56
2022/06/25 04:12:41;;;;;;;0.40;0.30;;;;;;;22.81;47.84;100915.88;16147115;19;129110;-57
2022/06/25 04:18:04;;;;;;;1.55;0.20;;;;;;;22.81;48.36;100921.47;16146815;19;129504;-57
2022/06/25 04:23:26;;;;;;;0.47;0.45;;;;;;;22.81;48.17;100932.63;16143951;19;129530;-56
2022/06/25 04:29:06;;;;;;;0.40;0.30;;;;;;;22.81;48.12;100932.63;16146113;19;130018;-56
2022/06/25 04:34:28;;;;;;;0.20;0.20;;;;;;;22.79;47.87;100946.00;16144163;19;129333;-57
2022/06/25 04:39:49;;;;;;;0.22;0.20;;;;;;;22.79;47.98;100946.00;16145990;19;129919;-56
2022/06/25 04:45:11;;;;;;;1.00;0.57;;;;;;;22.78;47.96;100947.97;16140521;19;129305;-55
2022/06/25 04:50:33;;;;;;;0.38;0.30;;;;;;;22.78;47.79;100935.94;16145520;19;129355;-56
2022/06/25 04:55:55;;;;;;;0.28;0.20;;;;;;;22.78;47.99;100941.53;16145399;19;131853;-55
2022/06/25 05:01:17;;;;;;;0.50;0.40;;;;;;;22.79;48.30;100946.00;16140433;19;130601;-56
2022/06/25 05:06:39;;;;;;;0.20;0.20;;;;;;;22.77;47.65;100953.81;16140112;19;129650;-57
2022/06/25 05:12:01;;;;;;;0.55;0.38;;;;;;;22.77;48.03;100949.06;16142991;19;129047;-56
2022/06/25 05:17:23;;;;;;;0.50;0.50;;;;;;;22.77;48.07;100951.03;16142538;19;130103;-55
2022/06/25 05:22:44;;;;;;;0.30;0.30;;;;;;;22.78;48.13;100958.25;16140565;19;129418;-56
2022/06/25 05:28:07;;;;;;;0.60;0.30;;;;;;;22.76;47.88;100952.97;16141444;19;129350;-56
2022/06/25 05:33:28;;;;;;;0.70;0.40;;;;;;;22.76;47.76;100966.91;16140986;19;129279;-56
2022/06/25 05:38:50;;;;;;;0.88;0.35;;;;;;;22.76;47.70;100968.88;16133741;19;129504;-56
2022/06/25 05:44:12;;;;;;;0.40;0.25;;;;;;;22.76;47.78;100975.28;16138843;19;129134;-56
2022/06/25 05:49:34;;;;;;;0.40;0.30;;;;;;;22.75;47.72;100976.38;16141815;19;129136;-58
2022/06/25 05:54:56;;;;;;;0.65;0.28;;;;;;;22.76;47.50;100982.81;16142651;19;129610;-59
2022/06/25 06:00:19;;;;;;;3.25;0.40;;;;;;;22.76;47.50;100996.75;16138065;19;129592;-56
2022/06/25 06:05:40;;;;;;;0.82;0.40;;;;;;;22.76;47.29;100999.56;16137494;19;130415;-60
2022/06/25 06:11:02;;;;;;;0.60;0.35;;;;;;;22.76;47.22;101010.72;16138981;19;129377;-57
2022/06/25 06:16:24;;;;;;;0.30;0.20;;;;;;;22.74;47.37;101008.19;16138074;19;129149;-56
2022/06/25 06:21:46;;;;;;;4.55;0.50;;;;;;;22.77;47.41;101015.19;16136873;19;128969;-67
2022/06/25 06:27:08;;;;;;;4.03;0.70;;;;;;;22.79;47.23;101024.09;16133180;19;131194;-64
2022/06/25 06:32:29;;;;;;;2.78;1.00;;;;;;;22.81;47.09;101027.44;16138729;19;129490;-63
2022/06/25 06:37:51;;;;;;;4.50;1.20;;;;;;;22.82;46.76;101034.72;16133142;19;130283;-63
2022/06/25 06:43:13;;;;;;;6.70;1.40;;;;;;;22.82;46.30;101026.34;16132311;19;129258;-63
2022/06/25 06:48:35;;;;;;;4.82;1.15;;;;;;;22.84;46.00;101032.50;16136734;19;129796;-62
2022/06/25 06:53:57;;;;;;;3.50;1.20;;;;;;;22.88;45.89;101028.06;16152018;19;130780;-62
2022/06/25 06:59:18;;;;;;;4.40;1.20;;;;;;;22.89;45.56;101029.72;16149964;19;129177;-64
2022/06/25 07:04:40;;;;;;;2.28;1.05;;;;;;;22.91;45.30;101033.09;16147402;19;129244;-64
2022/06/25 07:10:03;;;;;;;2.15;0.98;;;;;;;22.92;45.47;101033.94;16150118;19;128888;-64
2022/06/25 07:15:25;;;;;;;5.90;1.30;;;;;;;22.92;45.64;101042.31;16150085;19;132160;-64
2022/06/25 07:20:53;;;;;;;2.60;1.30;;;;;;;22.89;45.69;101047.28;16149345;19;128989;-64
2022/06/25 07:26:14;;;;;;;2.42;0.93;;;;;;;22.90;45.16;101045.34;16145278;19;129648;-63
2022/06/25 07:31:36;;;;;;;3.17;1.08;;;;;;;22.89;45.37;101040.91;16150860;19;129119;-64
2022/06/25 07:36:58;;;;;;;5.05;1.10;;;;;;;22.89;44.94;101040.91;16145636;19;130014;-64
2022/06/25 07:42:20;;;;;;;3.20;1.08;;;;;;;22.91;45.04;101038.66;16148143;19;129351;-63
2022/06/25 07:47:42;;;;;;;5.47;1.00;;;;;;;22.94;45.34;101038.13;16142789;19;130729;-63
2022/06/25 07:53:03;;;;;;;4.53;0.80;;;;;;;22.92;45.25;101048.72;16149341;19;131687;-63
2022/06/25 07:58:26;;;;;;;8.23;1.65;;;;;;;22.91;44.89;101049.84;16144247;19;129625;-63
2022/06/25 08:03:48;;;;;;;30.85;15.80;;;;;;;22.92;45.17;101045.94;16142945;19;129456;-63
2022/06/25 08:09:10;;;;;;;15.10;3.53;;;;;;;22.93;45.06;101044.81;16146198;19;129776;-63
2022/06/25 08:14:32;;;;;;;8.13;3.03;;;;;;;22.95;44.84;101050.16;16148174;19;130270;-63
2022/06/25 08:19:54;;;;;;;11.85;4.22;;;;;;;22.97;45.26;101043.19;16146606;19;129611;-63
2022/06/25 08:25:15;;;;;;;12.95;3.75;;;;;;;23.03;45.01;101052.41;16143971;19;130137;-63
2022/06/25 08:30:41;;;;;;;14.73;6.00;;;;;;;23.10;45.11;101063.31;16146437;19;128905;-63
2022/06/25 08:36:04;;;;;;;17.27;5.78;;;;;;;23.19;44.99;101051.34;16143674;19;130154;-63
2022/06/25 08:41:27;;;;;;;39.15;19.02;;;;;;;23.25;44.80;101060.56;16145135;19;129299;-63
2022/06/25 08:46:50;;;;;;;25.75;15.85;;;;;;;23.28;45.40;101062.78;16139427;19;129338;-63
2022/06/25 08:52:13;;;;;;;27.45;14.20;;;;;;;23.30;45.41;101056.97;16145243;19;131544;-63
2022/06/25 08:57:35;;;;;;;23.13;13.05;;;;;;;23.33;45.18;101060.03;16145602;19;129017;-63
2022/06/25 09:02:57;;;;;;;17.27;8.27;;;;;;;23.35;44.87;101046.63;16140436;19;129498;-63
2022/06/25 09:08:19;;;;;;;10.25;4.60;;;;;;;23.44;44.75;101048.88;16137943;19;130155;-60
2022/06/25 09:13:41;;;;;;;8.60;4.15;;;;;;;23.48;44.71;101052.81;16141150;19;129453;-61
2022/06/25 09:19:03;;;;;;;17.75;8.27;;;;;;;23.48;44.34;101050.84;16138006;19;128959;-61
2022/06/25 09:24:46;;;;;;;16.95;8.20;;;;;;;23.56;44.13;101055.03;16139619;19;129365;-62
2022/06/25 09:30:16;;;;;;;20.13;8.65;;;;;;;23.63;44.28;101052.84;16142481;19;130885;-61
2022/06/25 09:35:43;;;;;;;23.23;8.23;;;;;;;23.69;44.48;101047.25;16138937;19;128981;-62
2022/06/25 09:41:05;;;;;;;14.48;6.15;;;;;;;23.76;44.58;101053.41;16141002;19;129912;-62
2022/06/25 09:46:27;;;;;;;13.55;6.00;;;;;;;23.80;44.09;101058.19;16135794;19;129295;-63
2022/06/25 09:51:58;;;;;;;13.52;4.40;;;;;;;23.84;44.41;101046.44;16138086;19;128983;-62
2022/06/25 09:57:21;;;;;;;8.38;3.45;;;;;;;23.88;44.17;101059.56;16135854;19;129337;-62
2022/06/25 10:02:46;;;;;;;7.05;2.55;;;;;;;23.92;43.94;101051.47;16134998;19;130273;-62
2022/06/25 10:08:11;;;;;;;5.43;1.90;;;;;;;23.93;43.85;101056.78;16133701;19;129370;-61
2022/06/25 10:13:34;;;;;;;6.25;1.75;;;;;;;23.95;43.71;101062.91;16138290;19;130296;-60
2022/06/25 10:18:56;;;;;;;6.65;2.22;;;;;;;23.99;43.76;101059.56;16133844;19;129711;-64
2022/06/25 10:24:18;;;;;;;6.97;1.80;;;;;;;23.97;43.26;101049.50;16139120;19;129201;-62
2022/06/25 10:29:52;;;;;;;5.72;1.65;;;;;;;24.00;43.63;101059.28;16152994;19;129088;-62
2022/06/25 10:35:32;;;;;;;3.78;0.95;;;;;;;23.99;43.39;101052.00;16150978;19;129637;-62
2022/06/25 10:40:59;;;;;;;3.05;1.27;;;;;;;23.99;42.96;101054.81;16151173;19;129383;-63
2022/06/25 10:46:49;;;;;;;5.63;0.95;;;;;;;23.96;43.56;101064.59;16150902;19;129884;-62
2022/06/25 10:52:15;;;;;;;2.35;1.02;;;;;;;23.95;43.36;101062.91;16152153;19;128902;-63
2022/06/25 10:57:39;;;;;;;3.50;1.13;;;;;;;23.95;43.66;101064.84;16152330;19;129240;-63
2022/06/25 11:03:01;;;;;;;2.85;1.05;;;;;;;23.92;43.81;101065.44;16147639;19;129458;-62
2022/06/25 11:08:35;;;;;;;2.40;0.80;;;;;;;23.90;43.84;101073.25;16147958;19;130262;-62
2022/06/25 11:13:58;;;;;;;2.28;0.70;;;;;;;23.85;44.06;101062.94;16147970;19;129348;-62
2022/06/25 11:19:22;;;;;;;1.70;0.80;;;;;;;23.85;43.79;101048.97;16152627;19;129170;-62
2022/06/25 11:30:27;;;;;;;3.05;0.70;;;;;;;23.87;43.68;101051.47;16148743;19;130752;-61
2022/06/25 11:35:49;;;;;;;2.85;0.70;;;;;;;23.85;43.91;101056.47;16142975;19;130053;-61
2022/06/25 11:41:21;;;;;;;3.40;0.95;;;;;;;23.84;43.90;101054.81;16148174;19;130600;-62
2022/06/25 11:46:45;;;;;;;5.03;0.90;;;;;;;23.81;43.62;101048.69;16145543;19;129306;-63
2022/06/25 11:52:09;;;;;;;9.55;0.88;;;;;;;23.82;43.72;101052.31;16145350;19;129948;-62
2022/06/25 11:57:40;;;;;;;4.32;0.93;;;;;;;23.83;43.80;101042.81;16148357;19;129487;-61
2022/06/25 12:03:03;;;;;;;5.03;0.98;;;;;;;23.84;43.70;101036.09;16143348;19;129295;-61
2022/06/25 12:08:27;;;;;;;5.43;0.93;;;;;;;23.88;43.58;101050.34;16142700;19;130167;-61
2022/06/25 12:13:50;;;;;;;4.63;1.00;;;;;;;23.91;43.40;101039.44;16148348;19;130214;-62
2022/06/25 12:19:12;;;;;;;2.60;1.08;;;;;;;23.91;43.56;101031.06;16147321;19;129506;-62
2022/06/25 12:24:45;;;;;;;5.25;1.05;;;;;;;23.95;43.14;101050.88;16144882;19;128810;-62
2022/06/25 12:30:07;;;;;;;4.32;1.00;;;;;;;24.01;43.07;101046.13;16147104;19;129495;-62
2022/06/25 12:35:30;;;;;;;9.57;1.27;;;;;;;24.07;43.00;101042.22;16143425;19;129176;-62
2022/06/25 12:40:52;;;;;;;9.30;1.80;;;;;;;24.10;43.52;101042.50;16144584;19;129138;-63
2022/06/25 12:46:19;;;;;;;6.95;1.65;;;;;;;24.12;43.44;101036.66;16141830;19;129013;-63
2022/06/25 12:51:41;;;;;;;7.97;1.92;;;;;;;24.11;43.36;101026.59;16144526;19;128893;-63
2022/06/25 12:57:03;;;;;;;16.17;2.42;;;;;;;24.08;43.26;101029.94;16145642;19;129241;-62
2022/06/25 13:02:25;;;;;;;8.63;1.20;;;;;;;24.05;43.65;101033.28;16140095;19;129566;-63
2022/06/25 13:07:47;;;;;;;5.53;1.20;;;;;;;24.04;43.33;101023.22;16136115;19;128843;-63
2022/06/25 13:13:09;;;;;;;9.85;1.80;;;;;;;24.02;43.48;101034.69;16142673;19;129894;-63
2022/06/25 13:18:31;;;;;;;10.23;1.50;;;;;;;24.01;43.49;101024.63;16140800;19;129176;-64
2022/06/25 13:23:53;;;;;;;5.20;1.10;;;;;;;24.01;43.61;101021.84;16137311;19;129429;-63
2022/06/25 13:29:15;;;;;;;4.32;0.90;;;;;;;24.01;43.88;101010.66;16138864;19;131297;-65
2022/06/25 13:34:36;;;;;;;4.97;0.75;;;;;;;24.03;43.86;101013.16;16141981;19;129429;-64
2022/06/25 13:39:58;;;;;;;5.05;1.08;;;;;;;24.01;43.72;101016.25;16142254;19;129281;-65
2022/06/25 13:45:20;;;;;;;2.50;0.60;;;;;;;24.01;43.79;101013.47;16139016;19;129633;-65
2022/06/25 13:50:42;;;;;;;1.92;0.55;;;;;;;24.02;43.68;101017.06;16133718;19;130424;-64
2022/06/25 13:56:12;;;;;;;2.30;0.80;;;;;;;24.01;43.69;101020.97;16137312;19;129840;-64
2022/06/25 14:01:34;;;;;;;1.83;0.80;;;;;;;24.00;43.70;101036.94;16147314;19;129861;-65
2022/06/25 14:06:56;;;;;;;2.88;0.73;;;;;;;23.97;44.04;101041.13;16152620;19;129005;-65
2022/06/25 14:12:18;;;;;;;4.13;0.60;;;;;;;23.95;43.85;101037.78;16154899;19;129641;-65
2022/06/25 14:17:40;;;;;;;1.58;0.50;;;;;;;23.92;43.58;101029.94;16152397;19;129422;-64
2022/06/25 14:23:03;;;;;;;1.42;0.50;;;;;;;23.89;43.63;101036.09;16155861;19;129041;-64
2022/06/25 14:28:25;;;;;;;10.52;1.13;;;;;;;23.84;43.71;101038.91;16150243;19;131021;-64
2022/06/25 14:33:47;;;;;;;9.18;1.25;;;;;;;23.82;43.69;101029.94;16152765;19;129029;-64
2022/06/25 14:44:53;;;;;;;13.70;1.48;;;;;;;23.83;43.72;101034.44;16153747;19;131751;-64
2022/06/25 14:50:15;;;;;;;17.52;1.27;;;;;;;23.84;43.66;101038.91;16153010;19;129420;-63
2022/06/25 14:55:38;;;;;;;19.35;1.58;;;;;;;23.85;44.08;101051.75;16152982;19;129696;-64
2022/06/25 15:00:59;;;;;;;23.67;1.42;;;;;;;23.86;44.71;101036.66;16152520;19;129033;-51
2022/06/25 15:06:21;;;;;;;53.92;3.75;;;;;;;23.84;44.11;101033.31;16147537;19;129347;-53
2022/06/25 15:11:43;;;;;;;20.75;2.30;;;;;;;23.79;44.75;101033.28;16149288;19;129407;-51
2022/06/25 15:17:06;;;;;;;24.42;1.80;;;;;;;23.85;44.33;101032.19;16151220;19;129479;-50
2022/06/25 15:22:27;;;;;;;17.08;2.03;;;;;;;23.91;44.44;101033.03;16150041;19;128952;-53
2022/06/25 15:27:50;;;;;;;11.40;1.20;;;;;;;23.89;44.29;101030.50;16147445;19;129275;-56
2022/06/25 15:33:12;;;;;;;11.45;1.23;;;;;;;23.85;44.48;101040.56;16150522;19;129232;-58
2022/06/25 15:38:34;;;;;;;22.08;1.73;;;;;;;23.78;44.19;101034.41;16145163;19;129018;-54
2022/06/25 15:43:55;;;;;;;4.60;1.08;;;;;;;23.74;45.18;101061.25;16149883;19;129777;-50
2022/06/25 15:49:17;;;;;;;13.65;1.60;;;;;;;23.72;45.61;101063.47;16143293;19;128811;-52
2022/06/25 15:54:39;;;;;;;8.95;1.90;;;;;;;23.68;45.99;101063.19;16148049;19;129539;-54
2022/06/25 16:00:04;;;;;;;7.53;1.30;;;;;;;23.67;46.54;101050.34;16149882;19;129300;-49
2022/06/25 16:05:26;;;;;;;7.70;1.60;;;;;;;23.64;46.68;101051.72;16146757;19;129445;-52
2022/06/25 16:10:48;;;;;;;7.13;1.40;;;;;;;23.61;46.82;101069.06;16148966;19;128942;-52
2022/06/25 16:16:09;;;;;;;3.17;0.80;;;;;;;23.57;46.53;101073.47;16146296;19;128966;-47
2022/06/25 16:21:33;;;;;;;4.70;0.90;;;;;;;23.52;46.78;101087.41;16142263;19;130404;-49
2022/06/25 16:26:56;;;;;;;5.55;1.08;;;;;;;23.49;46.76;101101.94;16144690;19;129905;-51
2022/06/25 16:32:18;;;;;;;5.07;1.17;;;;;;;23.50;46.93;101096.09;16144009;19;129532;-50
2022/06/25 16:37:40;;;;;;;4.63;1.00;;;;;;;23.49;47.32;101082.41;16140084;19;129188;-51
2022/06/25 16:43:02;;;;;;;2.83;0.93;;;;;;;23.49;46.83;101071.25;16145269;19;129559;-46
2022/06/25 16:48:23;;;;;;;4.47;1.05;;;;;;;23.46;46.65;101078.19;16140522;19;128901;-49
2022/06/25 16:53:45;;;;;;;3.42;1.05;;;;;;;23.47;46.94;101079.03;16144459;19;129176;-51
2022/06/25 16:59:07;;;;;;;5.68;1.23;;;;;;;23.46;46.57;101077.38;16142655;19;129882;-48
2022/06/25 17:04:29;;;;;;;3.03;0.90;;;;;;;23.45;47.10;101075.69;16134979;19;128934;-48
2022/06/25 17:09:52;;;;;;;4.07;1.00;;;;;;;23.42;46.63;101070.66;16135633;19;129315;-48
2022/06/25 17:15:14;;;;;;;3.53;1.08;;;;;;;23.40;47.09;101072.88;16142471;19;129477;-50
2022/06/25 17:20:36;;;;;;;3.88;1.13;;;;;;;23.39;47.09;101071.19;16142633;19;129497;-48
2022/06/25 17:25:58;;;;;;;3.88;0.75;;;;;;;23.37;46.71;101053.91;16140992;19;128973;-49
2022/06/25 17:31:20;;;;;;;4.97;1.25;;;;;;;23.33;46.66;101062.81;16143961;19;129812;-52
2022/06/25 17:36:42;;;;;;;6.00;1.00;;;;;;;23.32;46.81;101057.53;16134381;19;128913;-53
2022/06/25 17:42:04;;;;;;;4.65;0.90;;;;;;;23.30;46.36;101065.31;16136383;19;130423;-50
2022/06/25 17:47:29;;;;;;;9.40;1.23;;;;;;;23.28;46.63;101073.97;16135771;19;129537;-50
2022/06/25 17:52:51;;;;;;;14.30;1.40;;;;;;;23.27;46.39;101063.91;16140944;19;129463;-52
2022/06/25 17:58:14;;;;;;;10.75;1.30;;;;;;;23.28;46.35;101065.59;16137676;19;130256;-52
2022/06/25 18:03:35;;;;;;;19.25;1.55;;;;;;;23.29;46.51;101072.84;16136132;19;129291;-49
2022/06/25 18:08:58;;;;;;;9.95;1.40;;;;;;;23.28;46.50;101065.59;16135194;19;129146;-51
2022/06/25 18:14:20;;;;;;;6.65;1.13;;;;;;;23.30;46.53;101063.38;16137821;19;129726;-54
2022/06/25 18:19:41;;;;;;;1.98;0.85;;;;;;;23.31;46.48;101062.25;16138167;19;128879;-52
2022/06/25 18:25:04;;;;;;;8.40;1.40;;;;;;;23.30;46.38;101074.53;16133025;19;129471;-50
2022/06/25 18:30:26;;;;;;;9.05;1.08;;;;;;;23.30;46.26;101071.72;16133096;19;129638;-52
2022/06/25 18:35:48;;;;;;;12.07;1.25;;;;;;;23.31;46.55;101083.75;16135122;19;129715;-48
2022/06/25 18:41:09;;;;;;;15.75;1.73;;;;;;;23.31;46.54;101081.78;16136611;19;131509;-49
2022/06/25 18:46:31;;;;;;;8.63;1.30;;;;;;;23.30;46.66;101085.69;16144117;19;129005;-49
2022/06/25 18:51:53;;;;;;;18.50;1.50;;;;;;;23.29;46.55;101089.59;16153098;19;128977;-48
2022/06/25 18:57:15;;;;;;;20.23;1.60;;;;;;;23.29;46.27;101085.97;16152481;19;129415;-51
2022/06/25 19:02:37;;;;;;;12.93;1.10;;;;;;;23.29;46.47;101084.00;16146894;19;130553;-51
2022/06/25 19:07:59;;;;;;;11.30;0.93;;;;;;;23.31;46.62;101081.78;16147561;19;128966;-49
2022/06/25 19:13:21;;;;;;;12.02;1.17;;;;;;;23.29;46.36;101072.84;16149354;19;129415;-52
2022/06/25 19:18:42;;;;;;;17.90;1.45;;;;;;;23.31;46.95;101083.75;16152956;19;129118;-52
2022/06/25 19:24:05;;;;;;;11.95;1.08;;;;;;;23.30;46.52;101088.47;16151504;19;129587;-51
2022/06/25 19:29:27;;;;;;;11.95;1.40;;;;;;;23.29;46.65;101084.00;16146315;19;129793;-51
2022/06/25 19:34:49;;;;;;;7.03;1.00;;;;;;;23.29;46.71;101088.78;16147010;19;129169;-52
2022/06/25 19:40:11;;;;;;;6.15;1.00;;;;;;;23.27;46.58;101080.66;16146736;19;129357;-51
2022/06/25 19:45:33;;;;;;;4.55;0.80;;;;;;;23.29;46.64;101111.09;16148636;19;130832;-50
2022/06/25 19:50:55;;;;;;;7.97;0.95;;;;;;;23.28;46.56;101109.41;16141834;19;129414;-49
2022/06/25 19:56:17;;;;;;;3.97;0.60;;;;;;;23.27;46.46;101111.34;16146056;19;129559;-50
2022/06/25 20:01:39;;;;;;;6.00;0.90;;;;;;;23.26;46.79;101114.44;16146016;19;129207;-53
2022/06/25 20:07:01;;;;;;;4.60;0.70;;;;;;;23.26;46.65;101129.25;16142633;19;128863;-51
2022/06/25 20:12:23;;;;;;;5.82;0.70;;;;;;;23.27;46.77;101114.16;16146465;19;129396;-50
2022/06/25 20:17:45;;;;;;;4.18;0.80;;;;;;;23.27;46.56;101110.53;16144275;19;129926;-54
2022/06/25 20:23:07;;;;;;;6.78;0.98;;;;;;;23.25;46.36;101109.97;16145321;19;129146;-53
2022/06/25 20:28:30;;;;;;;5.80;1.05;;;;;;;23.24;46.49;101125.88;16143022;19;130999;-53
2022/06/25 20:33:52;;;;;;;5.20;0.70;;;;;;;23.24;46.60;101114.72;16145372;19;129044;-51
2022/06/25 20:39:14;;;;;;;2.75;0.73;;;;;;;23.22;46.41;101135.63;16146137;19;129155;-52
2022/06/25 20:44:36;;;;;;;4.30;0.60;;;;;;;23.24;46.88;101147.34;16144925;19;129544;-52
2022/06/25 20:49:58;;;;;;;5.53;0.73;;;;;;;23.24;46.44;101137.06;16140979;19;129262;-48
2022/06/25 20:55:19;;;;;;;8.52;1.48;;;;;;;23.25;46.57;101126.72;16144995;19;128913;-50
2022/06/25 21:00:41;;;;;;;2.42;0.57;;;;;;;23.24;47.00;101142.63;16138451;19;128930;-53
2022/06/25 21:11:46;;;;;;;3.60;0.93;;;;;;;23.25;46.62;101133.16;16141005;19;131902;-50
2022/06/25 21:17:07;;;;;;;5.20;0.80;;;;;;;23.23;46.77;101129.78;16140316;19;129637;-51
2022/06/25 21:22:29;;;;;;;5.57;1.00;;;;;;;23.22;46.48;101132.81;16142238;19;128921;-49
2022/06/25 21:27:51;;;;;;;11.40;0.90;;;;;;;23.20;46.53;101135.91;16137971;19;131535;-46
2022/06/25 21:33:13;;;;;;;6.43;0.70;;;;;;;23.19;46.69;101145.38;16143057;19;130765;-49
2022/06/25 21:38:35;;;;;;;3.30;0.65;;;;;;;23.18;46.87;101138.13;16138122;19;129356;-48
2022/06/25 21:43:56;;;;;;;7.80;0.60;;;;;;;23.18;46.62;101129.75;16140096;19;130218;-51
2022/06/25 21:49:18;;;;;;;9.45;0.80;;;;;;;23.17;46.54;101125.28;16136119;19;130219;-53
2022/06/25 21:54:40;;;;;;;6.18;0.80;;;;;;;23.15;46.50;101105.16;16140566;19;129666;-51
2022/06/25 22:00:07;;;;;;;1.55;0.60;;;;;;;23.15;46.37;101110.75;16140761;19;131725;-52
2022/06/25 22:05:29;;;;;;;6.57;0.70;;;;;;;23.13;46.31;101096.25;16138170;19;129209;-50
2022/06/25 22:10:51;;;;;;;2.63;0.75;;;;;;;23.12;46.29;101083.41;16136027;19;130115;-49
2022/06/25 22:16:13;;;;;;;1.23;0.50;;;;;;;23.11;46.34;101081.72;16137359;19;128982;-48
2022/06/25 22:21:35;;;;;;;3.08;0.63;;;;;;;23.10;46.48;101074.47;16146519;19;129458;-47
2022/06/25 22:26:58;;;;;;;2.15;0.40;;;;;;;23.08;46.23;101082.28;16153805;19;129252;-49
2022/06/25 22:32:20;;;;;;;1.17;0.80;;;;;;;23.08;46.15;101090.66;16154629;19;128928;-52
2022/06/25 22:37:42;;;;;;;2.40;0.50;;;;;;;23.08;46.18;101101.81;16149339;19;129526;-50
2022/06/25 22:43:04;;;;;;;2.92;0.50;;;;;;;23.07;46.27;101106.56;16153234;19;129195;-52
2022/06/25 22:48:26;;;;;;;2.28;0.50;;;;;;;23.07;46.34;101125.25;16154349;19;129423;-52
2022/06/25 22:53:47;;;;;;;0.70;0.50;;;;;;;23.06;46.27;101135.56;16153607;19;129482;-54
2022/06/25 22:59:09;;;;;;;1.65;0.50;;;;;;;23.04;46.34;101121.88;16154719;19;129955;-53
2022/06/25 23:04:31;;;;;;;0.68;0.30;;;;;;;23.04;46.37;101130.25;16148979;19;129645;-54
2022/06/25 23:09:53;;;;;;;1.73;0.45;;;;;;;23.03;46.49;101122.97;16149824;19;128980;-55
2022/06/25 23:15:17;;;;;;;0.65;0.40;;;;;;;23.03;46.14;101124.94;16150270;19;129133;-53
2022/06/25 23:20:39;;;;;;;1.02;0.40;;;;;;;23.02;46.24;101145.59;16153807;19;129261;-54
2022/06/25 23:26:01;;;;;;;0.40;0.30;;;;;;;23.00;46.02;101148.66;16153234;19;130031;-54
2022/06/25 23:31:23;;;;;;;1.15;0.30;;;;;;;23.01;46.23;101161.50;16146208;19;129363;-54
2022/06/25 23:36:45;;;;;;;2.85;0.40;;;;;;;23.00;46.36;101139.44;16152069;19;129469;-54
2022/06/25 23:42:07;;;;;;;0.60;0.40;;;;;;;22.99;46.23;101155.34;16154860;19;128864;-55
2022/06/25 23:47:29;;;;;;;1.63;0.30;;;;;;;22.99;46.47;101163.72;16151603;19;129031;-55
2022/06/25 23:52:52;;;;;;;1.02;0.30;;;;;;;22.99;46.25;101165.66;16150166;19;130483;-54
2022/06/25 23:58:14;;;;;;;1.27;0.30;;;;;;;22.98;46.19;101170.41;16149761;19;129859;-55
